Time;durP1;ratioP1;P1;durP2;ratioP2;P2;SDS_P1;SDS_P2;PMS_P1;PMS_P2;Temp;Humidity;BMP_temperature;BMP_pressure;BME280_temperature;BME280_humidity;BME280_pressure;Samples;Min_cycle;Max_cycle;Signal;HPM_P1;HPM_P2
2022/03/11 00:02:27;;;;;;;7.40;1.10;;;24.90;99.90;;;;;;4918084;29;20193;-68
2022/03/11 00:04:54;;;;;;;7.80;1.17;;;25.40;99.90;;;;;;4917629;29;20213;-67
2022/03/11 00:07:22;;;;;;;5.07;1.33;;;25.70;99.90;;;;;;4915403;29;20757;-67
2022/03/11 00:09:50;;;;;;;8.37;1.43;;;25.80;99.90;;;;;;4917579;29;20256;-68
2022/03/11 00:12:18;;;;;;;2.27;0.83;;;25.80;99.90;;;;;;4917269;29;20224;-69
2022/03/11 00:14:45;;;;;;;5.83;1.10;;;25.40;99.90;;;;;;4917448;29;20189;-68
2022/03/11 00:17:13;;;;;;;8.33;1.80;;;25.10;99.90;;;;;;4917360;29;20177;-67
2022/03/11 00:19:41;;;;;;;7.63;1.20;;;25.40;99.90;;;;;;4917228;29;20181;-68
2022/03/11 00:22:09;;;;;;;4.07;1.03;;;26.00;99.90;;;;;;4917326;29;20189;-68
2022/03/11 00:24:36;;;;;;;5.60;1.33;;;26.30;99.90;;;;;;4916998;29;20293;-67
2022/03/11 00:27:04;;;;;;;4.67;1.20;;;26.50;99.90;;;;;;4917285;29;20547;-67
2022/03/11 00:29:32;;;;;;;7.77;1.13;;;26.40;99.90;;;;;;4917398;29;20640;-67
2022/03/11 00:31:59;;;;;;;5.83;1.23;;;26.20;99.90;;;;;;4917650;29;20193;-67
2022/03/11 00:34:28;;;;;;;10.67;1.40;;;26.80;99.90;;;;;;4917658;29;20995;-67
2022/03/11 00:36:55;;;;;;;4.03;1.13;;;26.60;99.90;;;;;;4917705;29;20186;-69
2022/03/11 00:39:23;;;;;;;6.13;1.10;;;26.10;99.90;;;;;;4917254;29;20209;-67
2022/03/11 00:41:51;;;;;;;4.27;1.17;;;26.50;99.90;;;;;;4916825;29;20199;-67
2022/03/11 00:44:20;;;;;;;5.63;1.03;;;25.70;99.90;;;;;;4916929;29;20217;-67
2022/03/11 00:46:48;;;;;;;6.63;1.33;;;26.20;99.90;;;;;;4917204;29;20182;-67
2022/03/11 00:49:15;;;;;;;6.37;1.20;;;26.90;99.90;;;;;;4916245;29;20193;-68
2022/03/11 00:51:43;;;;;;;4.93;1.27;;;27.30;99.90;;;;;;4916897;29;20174;-68
2022/03/11 00:54:11;;;;;;;4.10;1.40;;;27.50;99.90;;;;;;4916967;29;20574;-68
2022/03/11 00:56:38;;;;;;;8.53;1.67;;;27.60;99.90;;;;;;4917226;29;20670;-68
2022/03/11 00:59:06;;;;;;;8.23;1.37;;;27.60;99.90;;;;;;4916946;29;20220;-68
2022/03/11 01:01:34;;;;;;;8.67;1.60;;;27.30;99.90;;;;;;4916581;29;20236;-68
2022/03/11 01:04:01;;;;;;;8.97;1.60;;;26.70;99.90;;;;;;4916837;29;20237;-68
2022/03/11 01:06:29;;;;;;;9.07;1.53;;;26.10;99.90;;;;;;4917219;29;20185;-68
2022/03/11 01:08:57;;;;;;;5.03;1.23;;;25.60;99.90;;;;;;4917289;29;20287;-68
2022/03/11 01:11:24;;;;;;;5.33;1.20;;;24.90;99.90;;;;;;4916728;29;20189;-68
2022/03/11 01:13:52;;;;;;;7.60;1.50;;;25.10;99.90;;;;;;4916960;29;20208;-68
2022/03/11 01:16:21;;;;;;;11.50;1.50;;;25.80;99.90;;;;;;4916936;29;20182;-68
2022/03/11 01:18:49;;;;;;;5.87;1.30;;;26.30;99.90;;;;;;4916632;29;20568;-68
2022/03/11 01:21:17;;;;;;;6.37;1.57;;;26.10;99.90;;;;;;4916017;29;20228;-68
2022/03/11 01:23:45;;;;;;;5.20;1.70;;;26.30;99.90;;;;;;4916812;29;20212;-68
2022/03/11 01:26:13;;;;;;;9.30;2.00;;;27.30;99.90;;;;;;4916457;29;20208;-67
2022/03/11 01:28:42;;;;;;;5.77;1.87;;;28.00;99.90;;;;;;4916647;29;20200;-68
2022/03/11 01:31:13;;;;;;;6.77;1.30;;;28.00;99.90;;;;;;4916366;29;20204;-68
2022/03/11 01:33:42;;;;;;;6.10;1.30;;;26.60;99.90;;;;;;4896844;29;20203;-68
2022/03/11 01:36:11;;;;;;;3.57;1.07;;;26.90;99.90;;;;;;4914546;29;20639;-68
2022/03/11 01:38:39;;;;;;;5.57;1.30;;;28.00;99.90;;;;;;4916586;29;20197;-68
2022/03/11 01:41:09;;;;;;;6.27;1.23;;;28.30;99.90;;;;;;4916340;29;20189;-68
2022/03/11 01:44:11;;;;;;;3.63;0.87;;;27.60;99.90;;;;;;4915635;29;20209;-67
2022/03/11 01:46:39;;;;;;;5.93;1.20;;;27.00;99.90;;;;;;4837997;29;20251;-68
2022/03/11 01:49:09;;;;;;;2.30;0.90;;;26.20;99.90;;;;;;4902012;29;20655;-69
2022/03/11 01:51:42;;;;;;;6.50;1.27;;;26.80;99.90;;;;;;4915686;29;20607;-68
2022/03/11 01:54:11;;;;;;;10.30;1.33;;;27.70;99.90;;;;;;4898188;29;20178;-69
2022/03/11 01:56:39;;;;;;;6.47;1.47;;;28.30;99.90;;;;;;4916096;29;20174;-68
2022/03/11 01:59:11;;;;;;;11.03;1.70;;;27.90;99.90;;;;;;4916282;29;20190;-69
2022/03/11 02:01:39;;;;;;;7.67;1.63;;;28.50;99.90;;;;;;4915693;29;20224;-69
2022/03/11 02:04:07;;;;;;;5.73;1.60;;;29.70;99.90;;;;;;4915602;29;20263;-69
2022/03/11 02:06:35;;;;;;;5.03;1.50;;;29.50;99.90;;;;;;4915476;29;20196;-69
2022/03/11 02:09:04;;;;;;;7.00;1.40;;;28.30;99.90;;;;;;4916297;29;20272;-69
2022/03/11 02:11:31;;;;;;;8.93;2.07;;;27.70;99.90;;;;;;4916044;29;20662;-68
2022/03/11 02:14:01;;;;;;;9.30;2.17;;;26.80;99.90;;;;;;4915609;29;20670;-68
2022/03/11 02:16:32;;;;;;;7.83;1.73;;;26.50;99.90;;;;;;4915648;29;20697;-68
2022/03/11 02:19:00;;;;;;;8.37;2.10;;;26.70;99.90;;;;;;4916543;29;20177;-68
2022/03/11 02:21:29;;;;;;;7.97;1.90;;;27.20;99.90;;;;;;4915486;29;20676;-68
2022/03/11 02:23:59;;;;;;;7.07;2.13;;;27.10;99.90;;;;;;4915768;29;20224;-67
2022/03/11 02:26:30;;;;;;;5.33;1.50;;;26.80;99.90;;;;;;4896835;29;20213;-69
2022/03/11 02:29:00;;;;;;;10.30;1.97;;;26.50;99.90;;;;;;4902214;29;20189;-68
2022/03/11 02:31:30;;;;;;;9.17;1.60;;;26.50;99.90;;;;;;4913556;29;20884;-68
2022/03/11 02:34:00;;;;;;;8.23;1.53;;;26.30;99.90;;;;;;4915806;29;20698;-68
2022/03/11 02:36:28;;;;;;;6.23;1.77;;;26.50;99.90;;;;;;4915809;29;20188;-69
2022/03/11 02:38:56;;;;;;;11.60;2.00;;;26.50;99.90;;;;;;4915453;29;20196;-69
2022/03/11 02:41:24;;;;;;;7.63;1.33;;;26.50;99.90;;;;;;4915320;29;20189;-68
2022/03/11 02:43:52;;;;;;;5.80;1.60;;;26.70;99.90;;;;;;4916422;29;20209;-67
2022/03/11 02:46:20;;;;;;;11.43;2.13;;;27.30;99.90;;;;;;4918056;29;20651;-68
2022/03/11 02:48:48;;;;;;;9.53;1.53;;;26.50;99.90;;;;;;4919519;29;20193;-68
2022/03/11 02:51:15;;;;;;;8.33;1.53;;;26.20;99.90;;;;;;4919506;29;20184;-67
2022/03/11 02:53:44;;;;;;;6.03;1.30;;;26.10;99.90;;;;;;4918932;29;20216;-67
2022/03/11 02:56:13;;;;;;;6.43;1.50;;;25.90;99.90;;;;;;4918948;29;20652;-67
2022/03/11 02:58:41;;;;;;;8.00;1.70;;;25.70;99.90;;;;;;4917889;29;20188;-67
2022/03/11 03:01:10;;;;;;;8.47;1.60;;;26.00;99.90;;;;;;4919347;29;20605;-67
2022/03/11 03:03:37;;;;;;;9.60;1.77;;;26.10;99.90;;;;;;4919221;29;20231;-68
2022/03/11 03:06:06;;;;;;;5.93;1.40;;;26.30;99.90;;;;;;4919316;29;20188;-67
2022/03/11 03:08:34;;;;;;;9.13;1.70;;;26.30;99.90;;;;;;4918881;29;20192;-67
2022/03/11 03:11:02;;;;;;;4.13;1.43;;;26.50;99.90;;;;;;4916359;29;20192;-69
2022/03/11 03:13:30;;;;;;;3.23;1.30;;;26.40;99.90;;;;;;4918604;29;20569;-68
2022/03/11 03:15:58;;;;;;;5.83;1.20;;;27.20;99.90;;;;;;4918657;29;20201;-68
2022/03/11 03:18:25;;;;;;;5.57;1.23;;;26.60;99.90;;;;;;4918640;29;20272;-69
2022/03/11 03:20:53;;;;;;;7.63;1.47;;;26.50;99.90;;;;;;4918712;29;20181;-68
2022/03/11 03:23:24;;;;;;;9.37;1.47;;;26.30;99.90;;;;;;4917192;29;20220;-67
2022/03/11 03:25:53;;;;;;;13.60;1.40;;;26.30;99.90;;;;;;4918415;29;20177;-68
2022/03/11 03:28:22;;;;;;;7.40;1.83;;;26.70;99.90;;;;;;4915388;29;20197;-67
2022/03/11 03:30:50;;;;;;;5.87;1.27;;;25.90;99.90;;;;;;4918968;29;20184;-68
2022/03/11 03:33:17;;;;;;;8.07;1.67;;;25.90;99.90;;;;;;4918758;29;20186;-69
2022/03/11 03:35:45;;;;;;;7.23;1.60;;;25.70;99.90;;;;;;4918797;29;20185;-69
2022/03/11 03:38:13;;;;;;;1.93;0.87;;;25.50;99.90;;;;;;4918730;29;20181;-69
2022/03/11 03:40:41;;;;;;;4.07;0.97;;;25.20;99.90;;;;;;4918309;29;20655;-66
2022/03/11 03:43:08;;;;;;;3.50;1.07;;;25.30;99.90;;;;;;4918135;29;20307;-68
2022/03/11 03:45:36;;;;;;;9.40;1.67;;;25.10;99.90;;;;;;4918468;29;20224;-69
2022/03/11 03:48:04;;;;;;;10.07;1.50;;;25.00;99.90;;;;;;4918210;29;20381;-69
2022/03/11 03:50:32;;;;;;;6.87;1.23;;;25.20;99.90;;;;;;4918187;29;20185;-69
2022/03/11 03:52:59;;;;;;;5.30;1.40;;;25.50;99.90;;;;;;4917031;29;20196;-69
2022/03/11 03:55:27;;;;;;;8.53;1.60;;;26.00;99.90;;;;;;4917351;29;20630;-68
2022/03/11 03:57:55;;;;;;;6.60;1.10;;;26.60;99.90;;;;;;4918210;29;20189;-68
2022/03/11 04:00:23;;;;;;;4.57;1.20;;;27.30;99.90;;;;;;4917649;29;20292;-68
2022/03/11 04:02:52;;;;;;;6.00;1.03;;;27.30;99.90;;;;;;4917762;29;20177;-68
2022/03/11 04:05:20;;;;;;;6.23;1.43;;;26.70;99.90;;;;;;4917952;29;20207;-68
2022/03/11 04:07:48;;;;;;;5.60;1.40;;;26.40;99.90;;;;;;4917600;29;20548;-69
2022/03/11 04:10:18;;;;;;;4.50;1.03;;;25.70;99.90;;;;;;4918007;29;20496;-69
2022/03/11 04:12:45;;;;;;;8.40;1.60;;;25.50;99.90;;;;;;4918208;29;20186;-69
2022/03/11 04:15:14;;;;;;;4.93;1.30;;;26.00;99.90;;;;;;4918077;29;20260;-69
2022/03/11 04:17:42;;;;;;;8.33;1.87;;;26.30;99.90;;;;;;4917490;29;20177;-67
2022/03/11 04:20:11;;;;;;;8.43;1.40;;;26.80;99.90;;;;;;4917660;29;20189;-69
2022/03/11 04:22:43;;;;;;;7.47;1.33;;;27.00;99.90;;;;;;4918066;29;20177;-69
2022/03/11 04:25:13;;;;;;;4.83;1.13;;;27.10;99.90;;;;;;4918913;29;20185;-69
2022/03/11 04:27:41;;;;;;;5.07;1.47;;;27.20;99.90;;;;;;4919011;29;20252;-68
2022/03/11 04:30:09;;;;;;;7.20;1.20;;;27.40;99.90;;;;;;4917071;29;20217;-69
2022/03/11 04:32:37;;;;;;;7.30;1.33;;;27.90;99.90;;;;;;4919141;29;20193;-68
2022/03/11 04:35:07;;;;;;;6.40;1.50;;;27.90;99.90;;;;;;4918982;29;20640;-70
2022/03/11 04:37:35;;;;;;;8.93;1.57;;;28.30;99.90;;;;;;4918888;29;20190;-69
2022/03/11 04:40:04;;;;;;;9.43;1.60;;;28.40;99.90;;;;;;4917531;29;20201;-69
2022/03/11 04:42:32;;;;;;;5.47;1.83;;;27.60;99.90;;;;;;4917668;29;20268;-69
2022/03/11 04:44:59;;;;;;;4.83;1.50;;;26.80;99.90;;;;;;4917364;29;20269;-68
2022/03/11 04:47:27;;;;;;;8.27;1.53;;;27.30;99.90;;;;;;4917548;29;20209;-69
2022/03/11 04:49:55;;;;;;;6.03;1.40;;;27.30;99.90;;;;;;4917272;29;20181;-69
2022/03/11 04:52:23;;;;;;;10.17;1.60;;;27.70;99.90;;;;;;4917092;29;20200;-68
2022/03/11 04:54:50;;;;;;;4.40;1.40;;;27.50;99.90;;;;;;4916859;29;20189;-68
2022/03/11 04:57:18;;;;;;;10.53;1.57;;;27.60;99.90;;;;;;4917269;29;20181;-69
2022/03/11 04:59:46;;;;;;;10.10;1.20;;;27.70;99.90;;;;;;4916974;29;20196;-69
2022/03/11 05:02:13;;;;;;;5.53;1.60;;;27.80;99.90;;;;;;4916950;29;20290;-69
2022/03/11 05:04:41;;;;;;;3.80;1.00;;;27.80;99.90;;;;;;4917006;29;20217;-68
2022/03/11 05:07:09;;;;;;;4.30;1.20;;;27.70;99.90;;;;;;4916623;29;20240;-69
2022/03/11 05:09:37;;;;;;;8.93;1.63;;;26.90;99.90;;;;;;4916973;29;20189;-68
2022/03/11 05:12:05;;;;;;;5.87;1.23;;;26.20;99.90;;;;;;4917045;29;20188;-67
2022/03/11 05:14:33;;;;;;;8.93;2.53;;;25.60;99.90;;;;;;4916786;29;20204;-69
2022/03/11 05:17:01;;;;;;;8.43;1.27;;;25.30;99.90;;;;;;4916520;29;20261;-68
2022/03/11 05:19:28;;;;;;;6.27;1.63;;;25.20;99.90;;;;;;4916650;29;20185;-69
2022/03/11 05:21:56;;;;;;;4.93;1.30;;;25.20;99.90;;;;;;4916902;29;20173;-70
2022/03/11 05:24:24;;;;;;;10.27;1.13;;;25.10;99.90;;;;;;4916806;29;20746;-69
2022/03/11 05:26:52;;;;;;;6.83;1.43;;;25.60;99.90;;;;;;4916610;29;20189;-68
2022/03/11 05:29:20;;;;;;;10.70;1.47;;;25.30;99.90;;;;;;4916743;29;20237;-69
2022/03/11 05:31:47;;;;;;;5.17;1.57;;;25.00;99.90;;;;;;4916633;29;20192;-69
2022/03/11 05:34:15;;;;;;;5.77;1.13;;;24.80;99.90;;;;;;4916464;29;20193;-69
2022/03/11 05:36:42;;;;;;;8.10;1.33;;;24.90;99.90;;;;;;4916057;29;20186;-68
2022/03/11 05:39:10;;;;;;;4.27;1.13;;;25.20;99.90;;;;;;4916467;29;20257;-68
2022/03/11 05:41:38;;;;;;;9.17;1.57;;;25.60;99.90;;;;;;4916405;29;20291;-69
2022/03/11 05:44:06;;;;;;;3.73;1.03;;;25.60;99.90;;;;;;4916394;29;20217;-69
2022/03/11 05:46:34;;;;;;;5.80;1.23;;;25.90;99.90;;;;;;4916094;29;20189;-70
2022/03/11 05:49:02;;;;;;;4.50;1.00;;;26.10;99.90;;;;;;4915828;29;20288;-69
2022/03/11 05:51:29;;;;;;;7.40;1.30;;;26.00;99.90;;;;;;4915996;29;20209;-69
2022/03/11 05:53:57;;;;;;;5.00;1.43;;;26.10;99.90;;;;;;4916045;29;20188;-69
2022/03/11 05:56:25;;;;;;;7.03;1.90;;;26.20;99.90;;;;;;4916222;29;20188;-70
2022/03/11 05:58:53;;;;;;;5.97;1.30;;;25.50;99.90;;;;;;4915907;29;20196;-68
2022/03/11 06:01:20;;;;;;;7.07;1.20;;;25.20;99.90;;;;;;4915983;29;20319;-68
2022/03/11 06:03:48;;;;;;;5.60;0.80;;;24.80;99.90;;;;;;4916057;29;20311;-69
2022/03/11 06:06:16;;;;;;;7.03;1.60;;;24.70;99.90;;;;;;4915996;29;20193;-69
2022/03/11 06:08:45;;;;;;;5.87;1.40;;;24.40;99.90;;;;;;4916029;29;20188;-68
2022/03/11 06:11:12;;;;;;;6.70;1.20;;;24.40;99.90;;;;;;4915762;29;20208;-69
2022/03/11 06:13:40;;;;;;;7.57;1.10;;;24.30;99.90;;;;;;4915196;29;20272;-68
2022/03/11 06:16:08;;;;;;;6.37;1.13;;;24.40;99.90;;;;;;4915418;29;20185;-68
2022/03/11 06:18:35;;;;;;;8.63;1.50;;;24.30;99.90;;;;;;4914916;29;20182;-68
2022/03/11 06:21:03;;;;;;;6.10;1.60;;;24.60;99.90;;;;;;4915395;29;20228;-69
2022/03/11 06:23:32;;;;;;;3.10;0.87;;;24.70;99.90;;;;;;4900523;29;20221;-69
2022/03/11 06:26:00;;;;;;;4.33;1.00;;;24.70;99.90;;;;;;4915268;29;20184;-68
2022/03/11 06:28:28;;;;;;;7.93;1.10;;;24.60;99.90;;;;;;4915378;29;20181;-69
2022/03/11 06:30:56;;;;;;;5.13;1.67;;;24.40;99.90;;;;;;4914782;29;20178;-69
2022/03/11 06:33:24;;;;;;;3.33;0.87;;;24.60;99.90;;;;;;4914476;29;20205;-69
2022/03/11 06:35:52;;;;;;;6.17;1.00;;;25.00;99.90;;;;;;4915794;29;20216;-68
2022/03/11 06:38:19;;;;;;;3.90;1.20;;;25.60;99.90;;;;;;4915758;29;20230;-69
2022/03/11 06:40:49;;;;;;;6.47;1.23;;;26.00;99.90;;;;;;4915326;29;20699;-69
2022/03/11 06:43:18;;;;;;;11.90;1.40;;;25.80;99.90;;;;;;4915682;29;20236;-70
2022/03/11 06:45:46;;;;;;;3.07;0.80;;;25.80;99.90;;;;;;4915721;29;20241;-69
2022/03/11 06:48:13;;;;;;;4.30;1.30;;;25.80;99.90;;;;;;4914131;29;20542;-66
2022/03/11 06:50:41;;;;;;;6.00;1.23;;;25.70;99.90;;;;;;4914971;29;20243;-67
2022/03/11 06:53:09;;;;;;;4.73;0.90;;;25.80;99.90;;;;;;4915496;29;20208;-68
2022/03/11 06:55:37;;;;;;;3.80;1.00;;;26.00;99.90;;;;;;4915476;29;20181;-67
2022/03/11 06:58:04;;;;;;;9.33;1.53;;;26.40;99.90;;;;;;4915309;29;20189;-68
2022/03/11 07:00:32;;;;;;;4.33;1.27;;;26.30;99.90;;;;;;4915290;29;20229;-68
2022/03/11 07:03:02;;;;;;;6.47;1.23;;;25.90;99.90;;;;;;4915648;29;20196;-68
2022/03/11 07:05:30;;;;;;;5.43;1.27;;;25.70;99.90;;;;;;4915365;29;20193;-68
2022/03/11 07:07:58;;;;;;;3.07;1.10;;;25.70;99.90;;;;;;4915155;29;20201;-68
2022/03/11 07:10:26;;;;;;;7.60;1.10;;;25.20;99.90;;;;;;4915122;29;20220;-69
2022/03/11 07:12:53;;;;;;;5.63;1.17;;;24.50;99.90;;;;;;4915606;29;20185;-68
2022/03/11 07:15:21;;;;;;;6.27;0.93;;;23.80;99.90;;;;;;4915448;29;20188;-68
2022/03/11 07:17:49;;;;;;;5.03;1.53;;;23.50;99.90;;;;;;4915520;29;20268;-68
2022/03/11 07:20:17;;;;;;;5.47;1.10;;;23.60;99.90;;;;;;4914950;29;20185;-69
2022/03/11 07:22:47;;;;;;;8.53;1.47;;;23.70;99.90;;;;;;4915253;29;20205;-68
2022/03/11 07:25:16;;;;;;;7.90;1.63;;;23.40;99.90;;;;;;4915150;29;20197;-68
2022/03/11 07:27:45;;;;;;;6.27;1.70;;;23.20;99.90;;;;;;4915338;29;20297;-67
2022/03/11 07:30:13;;;;;;;7.80;1.87;;;23.00;99.90;;;;;;4916031;29;20189;-67
2022/03/11 07:32:41;;;;;;;5.63;1.43;;;22.80;99.90;;;;;;4915710;29;20271;-67
2022/03/11 07:35:13;;;;;;;7.53;1.50;;;22.70;99.90;;;;;;4917827;29;20185;-68
2022/03/11 07:37:41;;;;;;;8.50;1.20;;;22.60;99.90;;;;;;4918289;29;20217;-68
2022/03/11 07:40:11;;;;;;;8.23;1.57;;;22.50;99.90;;;;;;4918508;29;20279;-67
2022/03/11 07:42:43;;;;;;;4.67;1.03;;;22.40;99.90;;;;;;4918773;29;20716;-68
2022/03/11 07:45:15;;;;;;;7.60;1.80;;;22.20;99.90;;;;;;4918430;29;20311;-68
2022/03/11 07:47:42;;;;;;;4.90;1.50;;;22.20;99.90;;;;;;4918450;29;20216;-68
2022/03/11 07:50:11;;;;;;;5.03;1.10;;;22.20;99.90;;;;;;4918336;29;20216;-68
2022/03/11 07:52:39;;;;;;;3.37;1.07;;;22.10;99.90;;;;;;4918418;29;20185;-69
2022/03/11 07:55:09;;;;;;;5.47;1.60;;;22.10;99.90;;;;;;4918463;29;20292;-67
2022/03/11 07:57:39;;;;;;;5.07;1.33;;;22.00;99.90;;;;;;4918346;29;20658;-67
2022/03/11 08:00:08;;;;;;;9.03;1.57;;;22.00;99.90;;;;;;4917833;29;20217;-67
2022/03/11 08:02:36;;;;;;;6.93;1.63;;;22.00;99.90;;;;;;4918429;29;20193;-67
2022/03/11 08:05:04;;;;;;;4.77;1.30;;;22.00;99.90;;;;;;4916608;29;20225;-67
2022/03/11 08:07:32;;;;;;;7.47;1.33;;;22.10;99.90;;;;;;4925091;29;20272;-69
2022/03/11 08:09:59;;;;;;;6.03;1.40;;;22.20;99.90;;;;;;4932416;29;20181;-68
2022/03/11 08:12:27;;;;;;;6.33;1.40;;;22.10;99.90;;;;;;4926537;29;20173;-69
2022/03/11 08:14:57;;;;;;;4.87;1.33;;;22.10;99.90;;;;;;4937619;29;20210;-68
2022/03/11 08:17:25;;;;;;;4.10;1.10;;;22.00;99.90;;;;;;4934673;29;20217;-68
2022/03/11 08:19:53;;;;;;;6.93;3.23;;;21.80;99.90;;;;;;4935456;29;20275;-68
2022/03/11 08:22:20;;;;;;;6.10;1.87;;;21.80;99.90;;;;;;4918124;29;20521;-67
2022/03/11 08:24:47;;;;;;;9.47;2.13;;;21.80;99.90;;;;;;4916321;29;20260;-67
2022/03/11 08:27:17;;;;;;;5.20;1.70;;;21.80;99.90;;;;;;4917619;29;20184;-67
2022/03/11 08:29:45;;;;;;;6.60;1.43;;;21.80;99.90;;;;;;4917472;29;20280;-68
2022/03/11 08:32:12;;;;;;;9.10;1.30;;;21.80;99.90;;;;;;4917587;29;20247;-68
2022/03/11 08:34:39;;;;;;;4.40;1.50;;;21.80;99.90;;;;;;4917928;29;20203;-67
2022/03/11 08:37:07;;;;;;;6.23;1.30;;;21.70;99.90;;;;;;4917477;29;20185;-67
2022/03/11 08:39:34;;;;;;;7.20;1.43;;;21.70;99.90;;;;;;4917610;29;20678;-68
2022/03/11 08:42:01;;;;;;;5.03;1.00;;;21.70;99.90;;;;;;4916975;29;20177;-68
2022/03/11 08:44:29;;;;;;;5.80;1.27;;;21.70;99.90;;;;;;4917574;29;20312;-67
2022/03/11 08:46:56;;;;;;;4.30;1.10;;;21.60;99.90;;;;;;4916741;29;20178;-67
2022/03/11 08:49:24;;;;;;;8.00;1.27;;;21.50;99.90;;;;;;4917497;29;20189;-68
2022/03/11 08:51:51;;;;;;;7.40;1.20;;;21.50;99.90;;;;;;4916756;29;20181;-67
2022/03/11 08:54:19;;;;;;;6.53;1.23;;;21.50;99.90;;;;;;4917393;29;20180;-67
2022/03/11 08:56:47;;;;;;;5.47;1.20;;;21.40;99.90;;;;;;4916865;29;20185;-68
2022/03/11 08:59:15;;;;;;;4.83;1.10;;;21.40;99.90;;;;;;4917099;29;20644;-68
2022/03/11 09:01:42;;;;;;;5.30;1.50;;;21.40;99.90;;;;;;4917209;29;20228;-68
2022/03/11 09:04:09;;;;;;;5.50;1.27;;;21.40;99.90;;;;;;4917204;29;20216;-69
2022/03/11 09:06:37;;;;;;;4.27;1.10;;;21.30;99.90;;;;;;4917053;29;20278;-68
2022/03/11 09:09:04;;;;;;;7.37;1.47;;;21.30;99.90;;;;;;4917198;29;20189;-68
2022/03/11 09:11:32;;;;;;;6.83;1.63;;;21.30;99.90;;;;;;4917533;29;20293;-70
2022/03/11 09:14:00;;;;;;;8.50;1.97;;;21.30;99.90;;;;;;4918313;29;20181;-69
2022/03/11 09:16:27;;;;;;;3.27;1.10;;;21.30;99.90;;;;;;4917543;29;20193;-69
2022/03/11 09:18:55;;;;;;;5.23;1.13;;;21.30;99.90;;;;;;4918168;29;20275;-69
2022/03/11 09:21:22;;;;;;;7.83;1.27;;;21.30;99.90;;;;;;4918123;29;20177;-70
2022/03/11 09:23:50;;;;;;;11.07;2.00;;;21.30;99.90;;;;;;4917870;29;20348;-69
2022/03/11 09:26:17;;;;;;;4.47;1.20;;;21.30;99.90;;;;;;4917632;29;20192;-69
2022/03/11 09:28:45;;;;;;;5.40;1.87;;;21.30;99.90;;;;;;4918014;29;20256;-70
2022/03/11 09:31:13;;;;;;;3.53;1.40;;;21.30;99.90;;;;;;4918061;29;20710;-70
2022/03/11 09:33:41;;;;;;;5.40;1.40;;;21.30;99.90;;;;;;4917335;29;20193;-69
2022/03/11 09:36:10;;;;;;;9.70;1.43;;;21.20;99.90;;;;;;4917914;29;20184;-69
2022/03/11 09:38:38;;;;;;;7.10;1.30;;;21.30;99.90;;;;;;4917746;29;20217;-69
2022/03/11 09:41:07;;;;;;;6.80;1.43;;;21.30;99.90;;;;;;4917797;29;20261;-69
2022/03/11 09:43:36;;;;;;;6.30;1.20;;;21.30;99.90;;;;;;4917478;29;20216;-69
2022/03/11 09:46:03;;;;;;;4.17;1.40;;;21.30;99.90;;;;;;4917659;29;20216;-70
2022/03/11 09:48:32;;;;;;;6.10;1.40;;;21.30;99.90;;;;;;4917613;29;20173;-68
2022/03/11 09:51:04;;;;;;;6.13;1.30;;;21.30;99.90;;;;;;4917551;29;20192;-68
2022/03/11 09:53:31;;;;;;;4.77;0.90;;;21.20;99.90;;;;;;4916252;29;20622;-69
2022/03/11 09:55:58;;;;;;;8.53;1.60;;;21.20;99.90;;;;;;4917473;29;20185;-69
2022/03/11 09:58:26;;;;;;;8.57;1.87;;;21.20;99.90;;;;;;4917585;29;20197;-69
2022/03/11 10:00:53;;;;;;;7.20;2.17;;;21.20;99.90;;;;;;4917060;29;20216;-68
2022/03/11 10:03:20;;;;;;;6.10;1.43;;;21.10;99.90;;;;;;4916992;29;20209;-67
2022/03/11 10:05:53;;;;;;;6.67;1.30;;;21.10;99.90;;;;;;4917330;29;20195;-69
2022/03/11 10:08:38;;;;;;;7.77;1.60;;;21.10;99.90;;;;;;4917327;29;20640;-68
2022/03/11 10:11:26;;;;;;;3.50;1.23;;;21.00;99.90;;;;;;4917452;29;20707;-67
2022/03/11 10:14:04;;;;;;;8.33;1.53;;;21.00;99.90;;;;;;4916788;29;20758;-68
2022/03/11 10:16:32;;;;;;;5.50;1.43;;;21.00;99.90;;;;;;4917425;29;20177;-68
2022/03/11 10:19:09;;;;;;;5.77;2.00;;;21.00;99.90;;;;;;4917534;29;20581;-68
2022/03/11 10:21:41;;;;;;;7.53;1.33;;;21.00;99.90;;;;;;4916784;29;20185;-68
2022/03/11 10:24:16;;;;;;;7.63;1.30;;;21.00;99.90;;;;;;4916679;29;20216;-68
2022/03/11 10:26:47;;;;;;;4.23;1.73;;;21.00;99.90;;;;;;4917617;29;20187;-70
2022/03/11 10:29:21;;;;;;;7.53;1.57;;;21.00;99.90;;;;;;4917010;29;20647;-70
2022/03/11 10:31:52;;;;;;;4.97;1.63;;;21.00;99.90;;;;;;4917095;29;20189;-69
2022/03/11 10:34:24;;;;;;;8.43;1.90;;;21.00;99.90;;;;;;4916901;29;20189;-69
2022/03/11 10:36:57;;;;;;;5.70;1.40;;;20.90;99.90;;;;;;4916917;29;20178;-69
2022/03/11 10:39:31;;;;;;;8.40;1.70;;;20.90;99.90;;;;;;4916900;29;20194;-68
2022/03/11 10:42:13;;;;;;;5.83;1.57;;;20.80;99.90;;;;;;4916590;29;20193;-69
2022/03/11 10:45:00;;;;;;;4.50;1.20;;;20.80;99.90;;;;;;4900402;29;20572;-69
2022/03/11 10:47:31;;;;;;;8.23;1.30;;;20.80;99.90;;;;;;4911740;29;20184;-68
2022/03/11 10:50:02;;;;;;;9.17;2.00;;;20.80;99.90;;;;;;4914645;29;20228;-68
2022/03/11 10:52:46;;;;;;;12.23;1.80;;;20.80;99.90;;;;;;4916473;29;20624;-69
2022/03/11 10:55:26;;;;;;;3.70;1.33;;;20.70;99.90;;;;;;4916276;29;20239;-69
2022/03/11 10:57:59;;;;;;;5.33;1.43;;;20.70;99.90;;;;;;4916873;29;20241;-69
2022/03/11 11:00:27;;;;;;;5.60;1.43;;;20.70;99.90;;;;;;4916841;29;20221;-69
2022/03/11 11:03:03;;;;;;;5.53;1.60;;;20.70;99.90;;;;;;4915350;29;20239;-70
2022/03/11 11:05:31;;;;;;;4.77;1.17;;;20.70;99.90;;;;;;4918982;29;20669;-68
2022/03/11 11:08:00;;;;;;;6.30;1.43;;;20.70;99.90;;;;;;4920301;29;20259;-69
2022/03/11 11:10:30;;;;;;;5.63;1.50;;;20.70;99.90;;;;;;4920527;29;20184;-70
2022/03/11 11:12:58;;;;;;;4.17;1.63;;;20.70;99.90;;;;;;4919562;29;20188;-68
2022/03/11 11:15:26;;;;;;;4.90;1.57;;;20.70;99.90;;;;;;4919949;29;20219;-68
2022/03/11 11:17:55;;;;;;;7.93;1.70;;;20.80;99.90;;;;;;4920639;29;20260;-68
2022/03/11 11:20:26;;;;;;;4.27;1.30;;;20.80;99.90;;;;;;4920051;29;20217;-68
2022/03/11 11:22:54;;;;;;;5.73;1.53;;;20.80;99.90;;;;;;4918837;29;20193;-68
2022/03/11 11:25:23;;;;;;;5.67;1.87;;;20.70;99.90;;;;;;4920314;29;20226;-69
2022/03/11 11:27:57;;;;;;;6.53;1.43;;;20.70;99.90;;;;;;4919938;29;20317;-69
2022/03/11 11:30:25;;;;;;;8.50;1.53;;;20.70;99.90;;;;;;4920224;29;20181;-68
2022/03/11 11:32:55;;;;;;;5.87;1.47;;;20.70;99.90;;;;;;4919700;29;20236;-68
2022/03/11 11:35:32;;;;;;;9.27;1.37;;;20.80;99.90;;;;;;4919926;29;20191;-68
2022/03/11 11:38:27;;;;;;;7.83;1.73;;;20.70;99.90;;;;;;4920136;29;20211;-69
2022/03/11 11:40:55;;;;;;;8.53;1.93;;;20.70;99.90;;;;;;4920126;29;20196;-68
2022/03/11 11:43:29;;;;;;;6.60;1.70;;;20.80;99.90;;;;;;4919754;29;20304;-69
2022/03/11 11:45:58;;;;;;;4.27;1.20;;;20.70;99.90;;;;;;4919926;29;20272;-69
2022/03/11 11:48:43;;;;;;;6.50;1.20;;;20.70;99.90;;;;;;4919886;29;20628;-69
2022/03/11 11:51:12;;;;;;;6.30;1.90;;;20.70;99.90;;;;;;4919998;29;20188;-67
2022/03/11 11:53:53;;;;;;;6.47;1.80;;;20.60;99.90;;;;;;4919193;29;20671;-68
2022/03/11 11:56:37;;;;;;;10.50;1.50;;;20.60;99.90;;;;;;4919766;29;20247;-68
2022/03/11 11:59:19;;;;;;;6.33;1.47;;;20.60;99.90;;;;;;4919785;29;20208;-69
2022/03/11 12:01:57;;;;;;;6.40;2.00;;;20.60;99.90;;;;;;4919433;29;20236;-68
2022/03/11 12:04:30;;;;;;;8.73;1.73;;;20.60;99.90;;;;;;4919240;29;20224;-68
2022/03/11 12:07:02;;;;;;;5.60;1.33;;;20.60;99.90;;;;;;4919513;29;20580;-68
2022/03/11 12:12:30;;;;;;;5.13;1.60;;;20.50;99.90;;;;;;4919477;29;20196;-68
2022/03/11 12:15:04;;;;;;;7.13;1.57;;;20.40;99.90;;;;;;4918733;29;20191;-68
2022/03/11 12:17:41;;;;;;;6.77;1.23;;;20.40;99.90;;;;;;4918315;29;20195;-68
2022/03/11 12:20:31;;;;;;;5.33;1.90;;;20.30;99.90;;;;;;4919487;29;20250;-68
2022/03/11 12:23:00;;;;;;;5.20;1.63;;;20.20;99.90;;;;;;4917945;29;20219;-68
2022/03/11 12:25:32;;;;;;;7.50;1.50;;;20.30;99.90;;;;;;4919177;29;20335;-68
2022/03/11 12:28:08;;;;;;;4.43;1.87;;;20.20;99.90;;;;;;4919539;29;20184;-68
2022/03/11 12:30:48;;;;;;;6.90;1.10;;;20.20;99.90;;;;;;4919252;29;20631;-69
2022/03/11 12:33:18;;;;;;;6.30;1.37;;;20.10;99.90;;;;;;4918830;29;20212;-69
2022/03/11 12:35:47;;;;;;;10.03;1.80;;;20.20;99.90;;;;;;4917474;29;20559;-69
2022/03/11 12:38:24;;;;;;;4.13;1.37;;;20.10;99.90;;;;;;4919008;29;20289;-69
2022/03/11 12:40:53;;;;;;;7.80;1.97;;;20.10;99.90;;;;;;4918892;29;20212;-69
2022/03/11 12:43:21;;;;;;;5.73;1.60;;;20.00;99.90;;;;;;4918550;29;20207;-68
2022/03/11 12:45:56;;;;;;;8.03;1.80;;;20.00;99.90;;;;;;4918705;29;20195;-70
2022/03/11 12:48:27;;;;;;;5.60;1.20;;;20.00;99.90;;;;;;4918855;29;20187;-68
2022/03/11 12:50:55;;;;;;;7.90;2.20;;;20.00;99.90;;;;;;4900059;29;20191;-68
2022/03/11 12:53:23;;;;;;;3.73;1.50;;;20.00;99.90;;;;;;4906457;29;20657;-68
2022/03/11 12:55:53;;;;;;;5.17;1.60;;;20.00;99.90;;;;;;4918318;29;20720;-68
2022/03/11 12:58:30;;;;;;;6.27;1.60;;;20.00;99.90;;;;;;4918148;29;20192;-69
2022/03/11 13:01:08;;;;;;;6.17;1.97;;;19.90;99.90;;;;;;4917148;29;20525;-69